Nearby METAR Reports

 

EGEO - Oban, United Kingdom
Distance from station: SSW 18mi, 30km
Updated: 28/07/2021 14:20
Nearby showers, Mostly cloudy
Nearby showers, Mostly cloudy
 Wind from SW
Wind: SW 10 mph , 17 km/h
Temperature: 15°C
Dew Point: 13°C
Humidity: 88%
Barometer: 1000 hPa
Summary: Nearby Showers
Clouds: Mostly cloudy
Visibility: 6 miles , 10 km
Cloud details: Few Clouds 122 m
Mostly cloudy 823 m
2021/07/28 13:20 EGEO 281320Z 22009KT 9999 VCSH FEW004 BKN027 15/13 Q1000
EGPU - Tiree, United Kingdom
Distance from station: WSW 64mi, 103km
Updated: 28/07/2021 14:20
Mostly cloudy
Mostly cloudy
 Wind from WNW
Wind: WNW 14 mph , 22 km/h
Temperature: 15°C
Dew Point: 13°C
Humidity: 88%
Barometer: 999 hPa
Clouds: Mostly cloudy
Visibility: 6 miles , 10 km
Cloud details: Partly cloudy 183 m
Mostly cloudy 274 m
Mostly cloudy 488 m
2021/07/28 13:20 EGPU 281320Z 30012KT 9999 SCT006 BKN009 BKN016 15/13 Q0999
EGPF - Glasgow, United Kingdom
Distance from station: SSE 66mi, 107km
Updated: 28/07/2021 14:20
Mostly cloudy
Mostly cloudy
 Wind from W
Wind: W 10 mph , 17 km/h
Temperature: 16°C
Dew Point: 11°C
Humidity: 72%
Barometer: 1000 hPa
Clouds: Mostly cloudy
Visibility: 6 miles , 10 km
Cloud details: Partly cloudy 884 m
Mostly cloudy 1280 m
Mostly cloudy 1494 m
2021/07/28 13:20 EGPF 281320Z AUTO 26009KT 9999 SCT029 BKN042 BKN049 16/11 Q1000
 
EGPE - Inverness, United Kingdom
Distance from station: NE 71mi, 114km
Updated: 28/07/2021 14:20
Partly cloudy
Partly cloudy
 Wind from NNE
Wind: NNE 12 mph , 19 km/h
Temperature: 17°C
Dew Point: 15°C
Humidity: 88%
Barometer: 998 hPa
Clouds: Partly cloudy
Visibility: 6 miles , 10 km
Cloud details: Partly cloudy 274 m
2021/07/28 13:20 EGPE 281320Z 03010KT 9999 SCT009 17/15 Q0998
EGPI - Islay/Port Ellen, United Kingdom
Distance from station: SSW 81mi, 131km
Updated: 28/07/2021 14:20
Partly cloudy
Partly cloudy
 Wind from WSW
Wind: WSW 13 mph , 20 km/h
Temperature: 17°C
Dew Point: 14°C
Humidity: 83%
Barometer: 1001 hPa
Clouds: Partly cloudy
Visibility: 6 miles , 10 km
Cloud details: Partly cloudy 518 m
2021/07/28 13:20 EGPI 281320Z 25011KT 9999 SCT017 17/14 Q1001
EGPN - Dundee/Riverside, United Kingdom
Distance from station: E 86mi, 138km
Updated: 28/07/2021 14:20
Partly cloudy
Partly cloudy
 Wind from WSW
Wind: WSW 9 mph , 15 km/h
Temperature: 20°C
Dew Point: 15°C
Humidity: 73%
Barometer: 999 hPa
Clouds: Partly cloudy
Visibility: 6 miles , 10 km
Cloud details: Few Clouds 244 m
Partly cloudy 549 m
2021/07/28 13:20 EGPN 281320Z 25008KT 9999 FEW008 SCT018 20/15 Q0999
 
EGPK - Prestwick, United Kingdom
Distance from station: SSE 88mi, 141km
Updated: 28/07/2021 14:20
Few Clouds
Few Clouds
 Wind from W
Wind: W 14 mph , 22 km/h
Temperature: 18°C
Dew Point: 12°C
Humidity: 68%
Barometer: 1000 hPa
Clouds: Few Clouds
Visibility: 6 miles , 10 km
Cloud details: Few Clouds 610 m
2021/07/28 13:20 EGPK 281320Z 26012KT 9999 FEW020 18/12 Q1000
EGPH - Edinburgh, United Kingdom
Distance from station: SE 89mi, 143km
Updated: 28/07/2021 14:20
Mostly cloudy
Mostly cloudy
 Wind from WSW
Wind: WSW 10 mph , 17 km/h
Temperature: 18°C
Dew Point: 12°C
Humidity: 68%
Barometer: 999 hPa
Clouds: Mostly cloudy
Visibility: 6 miles , 10 km
Cloud details: Mostly cloudy 792 m
2021/07/28 13:20 EGPH 281320Z 25009KT 220V310 9999 BKN026 18/12 Q0999
EGQK - RAF Kinloss, United Kingdom
Distance from station: NE 90mi, 144km
Updated: 28/07/2021 13:50
Mostly cloudy
Mostly cloudy
 Wind from ENE
Wind: ENE 10 mph , 17 km/h
Temperature: 18°C
Dew Point: 15°C
Humidity: 83%
Barometer: 998 hPa
Clouds: Mostly cloudy
Visibility: 6 miles , 10 km
Cloud details: Mostly cloudy 213 m
2021/07/28 12:50 EGQK 281250Z AUTO 06009KT 9999 BKN007/// 18/15 Q0998
 
EGEC - Campbeltown, United Kingdom
Distance from station: S 90mi, 145km
Updated: 28/07/2021 14:20
Few Clouds
Few Clouds
 Wind from W
Wind: W 13 mph , 20 km/h
Temperature: 15°C
Dew Point: 12°C
Humidity: 82%
Barometer: 1001 hPa
Clouds: Few Clouds
Visibility: 6 miles , 10 km
Cloud details: Few Clouds 427 m
2021/07/28 13:20 EGEC 281320Z 27011KT 9999 FEW014 15/12 Q1001
EGQA - Tain Range, United Kingdom
Distance from station: NNE 91mi, 146km
Updated: 28/07/2021 09:50
NOT Current
Heavy rain, Showers, Overcast
Heavy rain, Showers, Overcast
 Wind from ENE
Wind: ENE 15 mph , 24 km/h
Summary: Heavy rain, Showers
Clouds: Overcast
Visibility: 1 mile , 2 km
Cloud details: Partly cloudy 122 m
Overcast 274 m
2021/07/28 08:50 EGQA 280850Z 07013KT 2000 +SHRA SCT004 OVC009 16/// Q1000 RMK YLO2
EGQL - RAF Leuchars, United Kingdom
Distance from station: ESE 93mi, 149km
Updated: 28/07/2021 13:50
Partly cloudy
Partly cloudy
 Wind from W
Wind: W 14 mph , 22 km/h
Temperature: 19°C
Dew Point: 12°C
Humidity: 64%
Barometer: 999 hPa
Clouds: Partly cloudy
Visibility: 6 miles , 10 km
Cloud details: Few Clouds 671 m
Partly cloudy 2134 m
2021/07/28 12:50 EGQL 281250Z 26012KT 9999 FEW022 SCT070 19/12 Q0999 BLU
 
EGPL - Benbecula, United Kingdom
Distance from station: WNW 96mi, 154km
Updated: 28/07/2021 14:20
Mostly cloudy
Mostly cloudy
 Wind from ENE
Wind: ENE 9 mph , 15 km/h
Temperature: 17°C
Dew Point: 14°C
Humidity: 83%
Barometer: 999 hPa
Clouds: Mostly cloudy
Visibility: 6 miles , 10 km
Cloud details: Partly cloudy 366 m
Mostly cloudy 1402 m
2021/07/28 13:20 EGPL 281320Z 06008KT 9999 SCT012 BKN046 17/14 Q0999
EGQS - RAF Lossiemouth, United Kingdom
Distance from station: NE 99mi, 160km
Updated: 28/07/2021 14:20
Mostly cloudy
Mostly cloudy
 Wind from E
Wind: E 10 mph , 17 km/h
Temperature: 17°C
Dew Point: 14°C
Humidity: 83%
Barometer: 998 hPa
Clouds: Mostly cloudy
Visibility: 6 miles , 10 km
Cloud details: Few Clouds 152 m
Partly cloudy 4877 m
Mostly cloudy 7620 m
2021/07/28 13:20 EGQS 281320Z 09009KT 9999 FEW005 SCT160 BKN250 17/14 Q0998 NOSIG RMK BLU BLU
EGPO - Stornoway, United Kingdom
Distance from station: NNW 111mi, 179km
Updated: 28/07/2021 14:20
Light rain, Overcast
Light rain, Overcast
 Wind from NE
Wind: NE 21 mph , 33 km/h
Temperature: 14°C
Dew Point: 13°C
Humidity: 94%
Barometer: 1000 hPa
Summary: Light rain
Clouds: Overcast
Visibility: 6 miles , 9 km
Cloud details: Partly cloudy 122 m
Overcast 183 m
2021/07/28 13:20 EGPO 281320Z 05018KT 9000 -RA SCT004 OVC006 14/13 Q1000
 
EGPD - Aberdeen/Dyce, United Kingdom
Distance from station: ENE 118mi, 190km
Updated: 28/07/2021 14:20
Mostly cloudy
Mostly cloudy
 Wind from E
Wind: E 8 mph , 13 km/h
Temperature: 18°C
Dew Point: 15°C
Humidity: 83%
Barometer: 998 hPa
Clouds: Mostly cloudy
Visibility: 6 miles , 10 km
Cloud details: Mostly cloudy 457 m
2021/07/28 13:20 EGPD 281320Z 10007KT 9999 BKN015 18/15 Q0998
EGAE - Eglinton/Londond, United Kingdom
Distance from station: SSW 138mi, 222km
Updated: 28/07/2021 14:20
Rain showers, Mostly cloudy
Rain showers, Mostly cloudy
 Wind from WSW
Wind: WSW 8 mph , 13 km/h
Temperature: 14°C
Dew Point: 13°C
Humidity: 94%
Barometer: 1002 hPa
Summary: Rain Showers
Clouds: Mostly cloudy
Visibility: 2 miles , 4 km
Cloud details: Partly cloudy 244 m
Mostly cloudy 549 m
Mostly cloudy 1494 m
2021/07/28 13:20 EGAE 281320Z 24007KT 4000 SHRA SCT008 BKN018 BKN049 14/13 Q1002
EGPC - Wick, United Kingdom
Distance from station: NNE 144mi, 232km
Updated: 28/07/2021 14:20
Fog
Fog
 Wind from NNE
Wind: NNE 14 mph , 22 km/h
Temperature: 13°C
Dew Point: 13°C
Humidity: 100%
Barometer: 1000 hPa
Summary: Fog
Visibility: 0 mile , 0 km
2021/07/28 13:20 EGPC 281320Z 03012KT 0350 FG VV/// 13/13 Q1000

Metar display script from Saratoga-Weather.org